createdAt,value
2022-11-18T00:00:54.752Z,0.68
2022-11-18T00:03:21.493Z,0.28
2022-11-18T00:05:53.518Z,0.43
2022-11-18T00:08:20.463Z,0.50
2022-11-18T00:10:47.180Z,0.50
2022-11-18T00:13:14.264Z,0.30
2022-11-18T00:15:40.997Z,0.35
2022-11-18T00:18:09.064Z,0.28
2022-11-18T00:20:35.808Z,0.40
2022-11-18T00:23:02.624Z,0.30
2022-11-18T00:25:29.351Z,0.25
2022-11-18T00:27:56.771Z,0.28
2022-11-18T00:30:23.487Z,0.50
2022-11-18T00:32:50.188Z,0.40
2022-11-18T00:35:18.294Z,0.30
2022-11-18T00:37:45.000Z,0.30
2022-11-18T00:40:12.456Z,0.28
2022-11-18T00:42:39.197Z,0.30
2022-11-18T00:45:06.891Z,0.20
2022-11-18T00:47:33.777Z,0.63
2022-11-18T00:50:00.475Z,0.38
2022-11-18T00:52:28.579Z,0.40
2022-11-18T00:54:55.292Z,0.28
2022-11-18T00:57:22.002Z,0.30
2022-11-18T00:59:48.700Z,0.52
2022-11-18T01:02:15.456Z,0.43
2022-11-18T01:04:42.187Z,0.50
2022-11-18T01:07:09.250Z,0.30
2022-11-18T01:09:37.347Z,0.40
2022-11-18T01:12:04.391Z,0.40
2022-11-18T01:14:31.261Z,0.30
2022-11-18T01:16:58.180Z,0.40
2022-11-18T01:19:25.539Z,0.35
2022-11-18T01:21:52.362Z,0.38
2022-11-18T01:24:19.105Z,0.20
2022-11-18T01:26:47.202Z,0.20
2022-11-18T01:29:13.986Z,0.30
2022-11-18T01:31:55.537Z,0.38
2022-11-18T01:34:28.344Z,0.50
2022-11-18T01:36:55.074Z,0.40
2022-11-18T01:39:21.818Z,0.47
2022-11-18T01:41:49.938Z,0.50
2022-11-18T01:44:57.037Z,0.50
2022-11-18T01:47:25.513Z,0.40
2022-11-18T01:49:52.932Z,0.20
2022-11-18T01:52:20.691Z,0.30
2022-11-18T01:54:53.624Z,0.30
2022-11-18T01:57:23.012Z,0.50
2022-11-18T01:59:54.021Z,0.30
2022-11-18T02:02:21.543Z,0.40
2022-11-18T02:04:50.888Z,0.40
2022-11-18T02:07:18.904Z,0.30
2022-11-18T02:09:45.844Z,0.52
2022-11-18T02:12:13.682Z,0.73
2022-11-18T02:14:45.425Z,0.32
2022-11-18T02:17:20.933Z,0.50
2022-11-18T02:20:31.299Z,0.50
2022-11-18T02:23:27.264Z,0.30
2022-11-18T02:26:13.630Z,0.35
2022-11-18T02:29:03.816Z,0.50
2022-11-18T02:31:35.174Z,0.35
2022-11-18T02:34:10.452Z,0.40
2022-11-18T02:36:42.410Z,0.30
2022-11-18T02:39:15.837Z,0.20
2022-11-18T02:41:44.140Z,0.40
2022-11-18T02:44:15.661Z,0.20
2022-11-18T02:46:47.341Z,0.40
2022-11-18T02:49:20.181Z,0.20
2022-11-18T02:51:48.555Z,0.30
2022-11-18T02:54:16.868Z,0.32
2022-11-18T02:56:45.557Z,0.50
2022-11-18T02:59:18.034Z,0.35
2022-11-18T03:01:44.995Z,0.45
2022-11-18T03:04:12.839Z,0.73
2022-11-18T03:06:41.696Z,0.35
2022-11-18T03:09:13.947Z,0.50
2022-11-18T03:11:50.875Z,0.50
2022-11-18T03:14:28.093Z,0.50
2022-11-18T03:16:59.681Z,0.50
2022-11-18T03:19:42.819Z,0.40
2022-11-18T03:22:17.720Z,0.45
2022-11-18T03:24:51.193Z,0.63
2022-11-18T03:27:25.989Z,0.65
2022-11-18T03:29:58.188Z,0.45
2022-11-18T03:32:28.451Z,0.40
2022-11-18T03:35:00.207Z,0.20
2022-11-18T03:37:28.608Z,0.20
2022-11-18T03:40:00.429Z,0.25
2022-11-18T03:42:31.816Z,0.35
2022-11-18T03:45:06.168Z,0.40
2022-11-18T03:47:35.708Z,0.30
2022-11-18T03:50:07.978Z,0.35
2022-11-18T03:52:37.383Z,0.38
2022-11-18T03:55:09.436Z,0.10
2022-11-18T03:57:43.616Z,0.38
2022-11-18T04:02:40.052Z,0.25
2022-11-18T04:05:10.357Z,0.30
2022-11-18T04:07:42.153Z,0.20
2022-11-18T04:10:13.987Z,0.30
2022-11-18T04:12:45.833Z,0.30
2022-11-18T04:15:14.006Z,0.32
2022-11-18T04:17:41.858Z,0.30
2022-11-18T04:20:14.060Z,0.30
2022-11-18T04:22:40.789Z,0.22
2022-11-18T04:25:07.976Z,0.40
2022-11-18T04:27:34.706Z,0.30
2022-11-18T04:30:01.445Z,0.20
2022-11-18T04:32:29.542Z,0.30
2022-11-18T04:34:56.251Z,0.20
2022-11-18T04:37:23.017Z,0.20
2022-11-18T04:39:49.925Z,0.30
2022-11-18T04:42:16.938Z,0.17
2022-11-18T04:44:43.677Z,0.13
2022-11-18T04:47:10.437Z,0.22
2022-11-18T04:49:38.513Z,0.20
2022-11-18T04:52:05.606Z,0.10
2022-11-18T04:54:32.390Z,0.10
2022-11-18T04:56:59.191Z,0.20
2022-11-18T04:59:28.331Z,0.15
2022-11-18T05:01:55.463Z,0.20
2022-11-18T05:04:23.797Z,0.05
2022-11-18T05:06:52.347Z,0.13
2022-11-18T05:09:20.381Z,0.08
2022-11-18T05:11:47.550Z,0.20
2022-11-18T05:14:14.738Z,0.10
2022-11-18T05:16:41.484Z,0.30
2022-11-18T05:19:09.008Z,0.17
2022-11-18T05:21:36.068Z,0.10
2022-11-18T05:24:05.059Z,0.08
2022-11-18T05:26:32.101Z,0.20
2022-11-18T05:28:58.808Z,0.10
2022-11-18T05:31:25.571Z,0.08
2022-11-18T05:33:52.343Z,0.10
2022-11-18T05:36:21.008Z,0.10
2022-11-18T05:38:48.044Z,0.03
2022-11-18T05:41:16.624Z,0.20
2022-11-18T05:43:43.342Z,0.20
2022-11-18T05:46:10.047Z,0.08
2022-11-18T05:48:36.758Z,0.17
2022-11-18T05:51:03.668Z,0.00
2022-11-18T05:53:30.413Z,0.30
2022-11-18T05:56:03.435Z,0.10
2022-11-18T05:58:31.577Z,0.10
2022-11-18T06:01:05.424Z,0.20
2022-11-18T06:03:36.318Z,0.17
2022-11-18T06:06:05.293Z,0.10
2022-11-18T06:08:35.443Z,0.38
2022-11-18T06:11:02.408Z,0.30
2022-11-18T06:13:36.114Z,0.10
2022-11-18T06:16:03.462Z,0.40
2022-11-18T06:18:32.423Z,0.20
2022-11-18T06:21:01.710Z,0.20
2022-11-18T06:23:30.408Z,0.22
2022-11-18T06:25:57.139Z,0.20
2022-11-18T06:28:24.834Z,0.20
2022-11-18T06:30:53.049Z,0.40
2022-11-18T06:33:19.760Z,0.10
2022-11-18T06:35:46.503Z,0.32
2022-11-18T06:38:13.264Z,0.50
2022-11-18T06:40:40.004Z,0.60
2022-11-18T06:43:07.108Z,0.35
2022-11-18T06:45:33.835Z,0.30
2022-11-18T06:48:01.915Z,0.43
2022-11-18T06:50:28.811Z,0.50
2022-11-18T06:52:55.536Z,0.60
2022-11-18T06:55:22.282Z,0.70
2022-11-18T06:57:49.000Z,0.68
2022-11-18T07:00:17.006Z,0.60
2022-11-18T07:02:43.723Z,0.60
2022-11-18T07:05:11.802Z,0.55
2022-11-18T07:07:42.042Z,0.47
2022-11-18T07:10:09.719Z,0.70
2022-11-18T07:12:36.515Z,0.40
2022-11-18T07:15:03.565Z,0.70
2022-11-18T07:17:30.583Z,0.50
2022-11-18T07:19:57.337Z,0.40
2022-11-18T07:22:25.439Z,0.40
2022-11-18T07:24:52.185Z,0.60
2022-11-18T07:27:18.910Z,0.50
2022-11-18T07:29:45.638Z,0.50
2022-11-18T07:32:12.359Z,0.40
2022-11-18T07:34:39.091Z,0.50
2022-11-18T07:37:05.829Z,0.40
2022-11-18T07:39:33.930Z,0.52
2022-11-18T07:42:00.704Z,0.17
2022-11-18T07:44:27.449Z,0.35
2022-11-18T07:46:54.175Z,0.30
2022-11-18T07:49:20.982Z,0.35
2022-11-18T07:51:47.790Z,0.38
2022-11-18T07:54:15.120Z,0.25
2022-11-18T07:56:43.581Z,0.60
2022-11-18T07:59:10.306Z,0.32
2022-11-18T08:01:37.220Z,0.38
2022-11-18T08:04:09.474Z,0.20
2022-11-18T08:06:36.541Z,0.20
2022-11-18T08:09:04.880Z,0.10
2022-11-18T08:11:31.707Z,0.25
2022-11-18T08:13:59.913Z,0.32
2022-11-18T08:16:27.674Z,0.30
2022-11-18T08:18:54.832Z,0.32
2022-11-18T08:21:23.024Z,0.20
2022-11-18T08:23:50.809Z,0.20
2022-11-18T08:26:18.029Z,0.13
2022-11-18T08:28:45.285Z,0.22
2022-11-18T08:31:15.691Z,0.28
2022-11-18T08:33:42.852Z,0.13
2022-11-18T08:36:12.534Z,0.10
2022-11-18T08:38:39.240Z,0.10
2022-11-18T08:41:06.143Z,0.10
2022-11-18T08:43:33.091Z,0.00
2022-11-18T08:45:59.931Z,0.10
2022-11-18T08:48:28.050Z,0.17
2022-11-18T08:50:54.886Z,0.10
2022-11-18T08:53:21.603Z,0.20
2022-11-18T08:55:50.867Z,0.20
2022-11-18T08:58:21.106Z,0.13
2022-11-18T09:00:47.819Z,0.20
2022-11-18T09:03:14.570Z,0.20
2022-11-18T09:05:42.752Z,0.20
2022-11-18T09:08:09.506Z,0.10
2022-11-18T09:10:37.806Z,0.20
2022-11-18T09:13:32.704Z,0.30
2022-11-18T09:15:51.377Z,0.10
2022-11-18T09:18:18.092Z,0.10
2022-11-18T09:20:55.103Z,0.10
2022-11-18T09:23:21.877Z,0.13
2022-11-18T09:25:48.650Z,0.00
2022-11-18T09:28:15.399Z,0.10
2022-11-18T09:30:42.155Z,0.17
2022-11-18T09:33:08.876Z,0.30
2022-11-18T09:35:35.602Z,0.20
2022-11-18T09:38:03.688Z,0.10
2022-11-18T09:40:30.489Z,0.17
2022-11-18T09:43:07.386Z,0.20
2022-11-18T09:45:38.516Z,0.20
2022-11-18T09:48:15.596Z,0.20
2022-11-18T09:50:49.448Z,0.20
2022-11-18T09:53:21.548Z,0.00
2022-11-18T09:55:49.724Z,0.00
2022-11-18T09:58:21.189Z,0.10
2022-11-18T10:00:47.928Z,0.10
2022-11-18T10:03:17.145Z,0.10
2022-11-18T10:05:49.697Z,0.00
2022-11-18T10:08:23.580Z,0.03
2022-11-18T10:10:58.830Z,0.10
2022-11-18T10:13:37.345Z,0.10
2022-11-18T10:16:15.543Z,0.13
2022-11-18T10:19:03.815Z,0.30
2022-11-18T10:21:41.012Z,0.00
2022-11-18T10:24:16.680Z,0.10
2022-11-18T10:26:43.654Z,0.10
2022-11-18T10:29:10.392Z,0.00
2022-11-18T10:31:38.333Z,0.10
2022-11-18T10:34:05.289Z,0.00
2022-11-18T10:36:33.571Z,0.10
2022-11-18T10:39:13.444Z,0.10
2022-11-18T10:41:45.203Z,0.00
2022-11-18T10:44:44.676Z,0.10
2022-11-18T10:47:24.390Z,0.10
2022-11-18T10:49:51.929Z,0.13
2022-11-18T10:52:18.748Z,0.08
2022-11-18T10:55:15.268Z,0.10
2022-11-18T10:57:42.816Z,0.20
2022-11-18T11:00:40.229Z,0.10
2022-11-18T11:03:24.709Z,0.10
2022-11-18T11:08:37.677Z,0.10
2022-11-18T11:11:06.066Z,0.20
2022-11-18T11:13:37.839Z,0.10
2022-11-18T11:16:06.962Z,0.10
2022-11-18T11:18:48.686Z,0.10
2022-11-18T11:21:16.649Z,0.20
2022-11-18T11:23:44.111Z,0.20
2022-11-18T11:29:11.995Z,0.20
2022-11-18T11:31:49.133Z,0.20
2022-11-18T11:34:22.962Z,0.20
2022-11-18T11:36:54.029Z,0.15
2022-11-18T11:39:43.684Z,0.20
2022-11-18T11:42:19.836Z,0.15
2022-11-18T11:44:59.795Z,0.13
2022-11-18T11:47:35.019Z,0.40
2022-11-18T11:50:08.718Z,0.15
2022-11-18T11:52:43.029Z,0.20
2022-11-18T11:55:19.804Z,0.20
2022-11-18T11:58:03.940Z,0.40
2022-11-18T12:00:36.811Z,0.20
2022-11-18T12:03:18.317Z,0.10
2022-11-18T12:05:45.082Z,0.20
2022-11-18T12:08:16.320Z,0.10
2022-11-18T12:10:46.201Z,0.28
2022-11-18T12:13:25.812Z,0.22
2022-11-18T12:16:01.674Z,0.30
2022-11-18T12:18:35.758Z,0.10
2022-11-18T12:23:29.687Z,0.20
2022-11-18T12:26:05.063Z,0.10
2022-11-18T12:28:36.551Z,0.13
2022-11-18T12:31:35.064Z,0.10
2022-11-18T12:34:18.477Z,0.30
2022-11-18T12:36:45.571Z,0.30
2022-11-18T12:39:57.068Z,0.05
2022-11-18T12:42:41.384Z,0.10
2022-11-18T12:45:56.118Z,0.10
2022-11-18T12:48:38.673Z,0.00
2022-11-18T12:51:44.359Z,0.20
2022-11-18T12:54:31.849Z,0.10
2022-11-18T12:57:00.615Z,0.10
2022-11-18T12:59:30.163Z,0.10
2022-11-18T13:02:22.019Z,0.10
2022-11-18T13:05:07.482Z,0.10
2022-11-18T13:07:39.748Z,0.20
2022-11-18T13:10:19.455Z,0.10
2022-11-18T13:12:46.247Z,0.10
2022-11-18T13:15:13.436Z,0.20
2022-11-18T13:17:41.712Z,0.10
2022-11-18T13:20:21.764Z,0.10
2022-11-18T13:22:52.430Z,0.38
2022-11-18T13:25:24.212Z,0.05
2022-11-18T13:27:58.122Z,0.20
2022-11-18T13:30:25.469Z,0.13
2022-11-18T13:32:57.711Z,0.10
2022-11-18T13:35:26.740Z,0.32
2022-11-18T13:37:56.237Z,0.20
2022-11-18T13:40:26.203Z,0.32
2022-11-18T13:42:53.209Z,0.22
2022-11-18T13:45:21.856Z,0.20
2022-11-18T13:47:51.690Z,0.40
2022-11-18T13:50:24.390Z,0.20
2022-11-18T13:53:01.648Z,0.20
2022-11-18T13:55:33.305Z,0.20
2022-11-18T13:58:03.772Z,0.20
2022-11-18T14:00:34.432Z,0.25
2022-11-18T14:03:04.146Z,0.30
2022-11-18T14:05:31.012Z,0.50
2022-11-18T14:08:06.331Z,0.50
2022-11-18T14:10:39.715Z,0.25
2022-11-18T14:13:17.710Z,0.20
2022-11-18T14:15:44.550Z,0.40
2022-11-18T14:18:19.809Z,0.47
2022-11-18T14:20:51.674Z,0.63
2022-11-18T14:23:24.933Z,0.47
2022-11-18T14:25:51.806Z,0.60
2022-11-18T14:28:22.950Z,0.52
2022-11-18T14:31:01.790Z,0.60
2022-11-18T14:33:29.822Z,0.50
2022-11-18T14:35:58.833Z,0.50
2022-11-18T14:38:41.046Z,0.60
2022-11-18T14:41:16.369Z,0.70
2022-11-18T14:43:43.183Z,0.85
2022-11-18T14:46:15.244Z,0.52
2022-11-18T14:48:42.386Z,0.38
2022-11-18T14:51:12.717Z,0.60
2022-11-18T14:53:40.811Z,0.47
2022-11-18T14:56:13.474Z,0.90
2022-11-18T14:58:40.183Z,0.60
2022-11-18T15:01:09.841Z,0.45
2022-11-18T15:03:36.589Z,0.60
2022-11-18T15:06:03.304Z,0.55
2022-11-18T15:08:30.045Z,0.90
2022-11-18T15:10:58.110Z,0.60
2022-11-18T15:13:24.842Z,0.60
2022-11-18T15:15:51.554Z,0.80
2022-11-18T15:18:18.283Z,0.65
2022-11-18T15:20:45.007Z,0.75
2022-11-18T15:23:11.719Z,0.70
2022-11-18T15:25:38.539Z,0.57
2022-11-18T15:28:06.720Z,0.60
2022-11-18T15:30:33.439Z,0.80
2022-11-18T15:33:00.157Z,0.50
2022-11-18T15:35:26.882Z,0.57
2022-11-18T15:37:53.757Z,0.45
2022-11-18T15:40:20.556Z,0.50
2022-11-18T15:42:51.783Z,0.47
2022-11-18T15:45:20.251Z,0.52
2022-11-18T15:47:46.971Z,0.85
2022-11-18T15:50:13.837Z,1.00
2022-11-18T15:52:40.561Z,0.60
2022-11-18T15:55:08.390Z,0.82
2022-11-18T15:57:35.163Z,0.80
2022-11-18T16:00:02.199Z,1.00
2022-11-18T16:02:30.448Z,0.65
2022-11-18T16:04:57.242Z,1.15
2022-11-18T16:07:24.049Z,0.73
2022-11-18T16:09:50.811Z,0.80
2022-11-18T16:12:17.673Z,1.10
2022-11-18T16:14:44.406Z,0.85
2022-11-18T16:17:11.131Z,1.17
2022-11-18T16:19:39.197Z,1.30
2022-11-18T16:22:05.898Z,1.02
2022-11-18T16:24:32.796Z,1.35
2022-11-18T16:26:59.512Z,1.10
2022-11-18T16:29:26.257Z,0.90
2022-11-18T16:31:53.204Z,1.08
2022-11-18T16:34:21.334Z,0.93
2022-11-18T16:36:51.057Z,0.82
2022-11-18T16:39:20.209Z,0.90
2022-11-18T16:41:47.233Z,1.02
2022-11-18T16:44:15.703Z,0.88
2022-11-18T16:46:45.823Z,1.10
2022-11-18T16:49:14.092Z,1.10
2022-11-18T16:51:42.200Z,0.88
2022-11-18T16:54:15.461Z,0.70
2022-11-18T16:56:42.200Z,0.50
2022-11-18T16:59:13.062Z,0.90
2022-11-18T17:01:39.992Z,0.95
2022-11-18T17:04:06.733Z,0.90
2022-11-18T17:06:33.513Z,0.80
2022-11-18T17:09:00.580Z,0.73
2022-11-18T17:11:28.682Z,0.98
2022-11-18T17:13:58.316Z,0.90
2022-11-18T17:16:25.870Z,0.77
2022-11-18T17:18:56.930Z,0.88
2022-11-18T17:21:24.524Z,1.00
2022-11-18T17:23:51.631Z,1.20
2022-11-18T17:26:21.357Z,1.05
2022-11-18T17:28:49.869Z,0.80
2022-11-18T17:31:18.652Z,0.82
2022-11-18T17:33:46.108Z,0.80
2022-11-18T17:36:15.255Z,0.98
2022-11-18T17:38:43.665Z,0.60
2022-11-18T17:41:12.364Z,0.98
2022-11-18T17:43:39.073Z,1.10
2022-11-18T17:46:07.245Z,0.80
2022-11-18T17:48:33.956Z,0.90
2022-11-18T17:51:04.350Z,0.90
2022-11-18T17:53:31.530Z,1.00
2022-11-18T17:56:03.711Z,0.90
2022-11-18T17:58:30.930Z,0.70
2022-11-18T18:01:05.792Z,0.88
2022-11-18T18:03:33.926Z,0.90
2022-11-18T18:06:01.748Z,0.93
2022-11-18T18:08:28.491Z,0.75
2022-11-18T18:11:00.582Z,1.02
2022-11-18T18:13:27.284Z,1.10
2022-11-18T18:16:01.100Z,1.15
2022-11-18T18:18:28.285Z,0.95
2022-11-18T18:20:56.563Z,1.02
2022-11-18T18:23:23.272Z,0.98
2022-11-18T18:25:50.015Z,1.20
2022-11-18T18:28:16.735Z,1.10
2022-11-18T18:30:43.608Z,1.10
2022-11-18T18:33:10.360Z,0.85
2022-11-18T18:35:40.015Z,0.93
2022-11-18T18:38:08.494Z,1.25
2022-11-18T18:40:35.235Z,1.30
2022-11-18T18:43:01.961Z,1.27
2022-11-18T18:45:28.686Z,0.93
2022-11-18T18:47:55.375Z,0.88
2022-11-18T18:50:28.193Z,1.13
2022-11-18T18:52:56.329Z,1.30
2022-11-18T18:55:24.404Z,0.85
2022-11-18T18:57:51.114Z,1.13
2022-11-18T19:00:18.749Z,1.40
2022-11-18T19:02:45.513Z,1.27
2022-11-18T19:05:12.244Z,1.17
2022-11-18T19:07:41.742Z,1.52
2022-11-18T19:10:09.027Z,1.30
2022-11-18T19:12:37.107Z,1.70
2022-11-18T19:15:04.491Z,1.50
2022-11-18T19:17:31.381Z,1.63
2022-11-18T19:19:58.462Z,1.73
2022-11-18T19:22:25.806Z,1.20
2022-11-18T19:24:57.283Z,1.80
2022-11-18T19:27:40.058Z,1.73
2022-11-18T19:30:10.996Z,1.90
2022-11-18T19:32:41.425Z,1.77
2022-11-18T19:35:10.248Z,1.92
2022-11-18T19:37:37.329Z,2.00
2022-11-18T19:40:08.886Z,1.88
2022-11-18T19:42:38.842Z,1.83
2022-11-18T19:45:06.841Z,2.17
2022-11-18T19:47:33.776Z,1.67
2022-11-18T19:50:00.569Z,2.17
2022-11-18T19:52:27.607Z,1.70
2022-11-18T19:54:54.336Z,1.88
2022-11-18T19:57:21.057Z,1.98
2022-11-18T19:59:49.151Z,1.67
2022-11-18T20:02:15.947Z,1.70
2022-11-18T20:04:42.756Z,1.55
2022-11-18T20:07:09.539Z,2.00
2022-11-18T20:09:36.285Z,1.58
2022-11-18T20:12:03.577Z,1.50
2022-11-18T20:14:30.315Z,1.65
2022-11-18T20:16:58.613Z,1.95
2022-11-18T20:19:25.535Z,1.60
2022-11-18T20:21:52.240Z,1.88
2022-11-18T20:24:19.343Z,1.80
2022-11-18T20:26:46.537Z,1.73
2022-11-18T20:29:13.333Z,1.80
2022-11-18T20:31:40.501Z,1.80
2022-11-18T20:34:12.164Z,1.90
2022-11-18T20:36:38.856Z,1.80
2022-11-18T20:39:07.124Z,2.17
2022-11-18T20:41:34.094Z,1.77
2022-11-18T20:44:00.852Z,1.88
2022-11-18T20:46:28.038Z,1.48
2022-11-18T20:48:55.443Z,1.55
2022-11-18T20:51:25.036Z,1.52
2022-11-18T20:53:53.280Z,1.77
2022-11-18T20:56:22.453Z,2.03
2022-11-18T20:58:49.249Z,1.42
2022-11-18T21:01:17.991Z,1.88
2022-11-18T21:03:49.033Z,1.70
2022-11-18T21:06:15.753Z,1.63
2022-11-18T21:08:43.860Z,1.95
2022-11-18T21:11:12.856Z,1.52
2022-11-18T21:13:40.245Z,1.67
2022-11-18T21:16:07.223Z,1.48
2022-11-18T21:18:33.957Z,1.60
2022-11-18T21:21:00.659Z,1.40
2022-11-18T21:23:27.473Z,1.38
2022-11-18T21:25:55.560Z,1.35
2022-11-18T21:28:22.274Z,1.33
2022-11-18T21:30:48.971Z,1.70
2022-11-18T21:33:15.711Z,1.48
2022-11-18T21:35:42.419Z,1.23
2022-11-18T21:38:09.143Z,1.20
2022-11-18T21:40:35.871Z,1.30
2022-11-18T21:43:03.928Z,1.15
2022-11-18T21:45:31.436Z,1.10
2022-11-18T21:47:58.157Z,0.88
2022-11-18T21:50:24.879Z,1.20
2022-11-18T21:52:51.592Z,0.95
2022-11-18T21:55:18.305Z,1.42
2022-11-18T21:57:45.008Z,1.15
2022-11-18T22:00:14.341Z,1.10
2022-11-18T22:02:41.056Z,0.95
2022-11-18T22:05:08.692Z,1.35
2022-11-18T22:07:35.724Z,1.20
2022-11-18T22:10:02.555Z,0.93
2022-11-18T22:12:29.265Z,1.40
2022-11-18T22:14:56.020Z,1.00
2022-11-18T22:17:24.099Z,0.98
2022-11-18T22:19:50.956Z,0.95
2022-11-18T22:22:17.658Z,1.10
2022-11-18T22:24:44.402Z,1.10
2022-11-18T22:27:11.664Z,0.98
2022-11-18T22:29:38.568Z,1.20
2022-11-18T22:32:05.367Z,0.65
2022-11-18T22:34:33.442Z,0.93
2022-11-18T22:37:00.155Z,1.58
2022-11-18T22:39:26.881Z,0.82
2022-11-18T22:41:53.594Z,1.08
2022-11-18T22:44:20.299Z,1.08
2022-11-18T22:46:47.003Z,0.93
2022-11-18T22:49:13.763Z,0.90
2022-11-18T22:51:41.838Z,0.90
2022-11-18T22:54:37.275Z,1.02
2022-11-18T22:56:56.893Z,0.85
2022-11-18T22:59:24.129Z,0.65
2022-11-18T23:01:51.181Z,1.05
2022-11-18T23:04:18.219Z,1.00
2022-11-18T23:06:46.393Z,0.70
2022-11-18T23:09:13.235Z,0.77
2022-11-18T23:11:39.952Z,1.20
2022-11-18T23:14:08.380Z,0.80
2022-11-18T23:16:37.595Z,0.70
2022-11-18T23:19:05.730Z,0.77
2022-11-18T23:21:32.492Z,0.60
2022-11-18T23:24:00.565Z,0.80
2022-11-18T23:26:27.381Z,0.70
2022-11-18T23:28:54.111Z,0.93
2022-11-18T23:31:22.315Z,0.63
2022-11-18T23:33:49.138Z,0.90
2022-11-18T23:36:18.131Z,1.33
2022-11-18T23:38:45.694Z,1.00
2022-11-18T23:41:15.607Z,1.00
2022-11-18T23:43:42.916Z,1.00
2022-11-18T23:46:10.056Z,0.82
2022-11-18T23:48:38.719Z,0.90
2022-11-18T23:51:07.747Z,0.70
2022-11-18T23:53:35.701Z,0.90
2022-11-18T23:56:05.180Z,0.90
2022-11-18T23:58:33.344Z,0.90
